Time,TemperatureF,DewpointF,PressureIn,WindDirection,WindDirectionDegrees,WindSpeedMPH,WindSpeedGustMPH,Humidity,HourlyPrecipIn,Conditions,Clouds,dailyrainin,SoftwareType,DateUTC
2013-02-19 00:02:00,35.0,27.0,30.31,West,269,0.0,0.0,72,0.00,,,0.02,,2013-02-19 05:02:00,
2013-02-19 00:13:00,35.0,27.0,30.31,West,269,0.0,0.0,72,0.00,,,0.02,,2013-02-19 05:13:00,
2013-02-19 00:22:00,36.0,27.0,30.31,WSW,240,0.0,1.0,70,0.00,,,0.02,,2013-02-19 05:22:00,
2013-02-19 00:32:00,37.0,27.0,30.30,WSW,240,0.0,1.0,68,0.00,,,0.02,,2013-02-19 05:32:00,
2013-02-19 00:43:00,37.0,27.0,30.30,WSW,240,0.0,1.0,68,0.00,,,0.02,,2013-02-19 05:43:00,
2013-02-19 00:52:00,38.0,28.0,30.29,WSW,240,0.0,1.0,66,0.00,,,0.02,,2013-02-19 05:52:00,
2013-02-19 01:02:00,38.0,28.0,30.30,WSW,240,0.0,0.0,66,0.00,,,0.02,,2013-02-19 06:02:00,
2013-02-19 01:12:00,38.0,28.0,30.30,WSW,240,0.0,0.0,66,0.00,,,0.02,,2013-02-19 06:12:00,
2013-02-19 01:22:00,36.0,27.0,30.29,WSW,240,0.0,0.0,69,0.00,,,0.02,,2013-02-19 06:22:00,
2013-02-19 01:32:00,35.0,26.0,30.29,ESE,121,0.0,0.0,70,0.00,,,0.02,,2013-02-19 06:32:00,
2013-02-19 01:42:00,35.0,26.0,30.29,ESE,121,0.0,0.0,70,0.00,,,0.02,,2013-02-19 06:42:00,
2013-02-19 01:53:00,34.0,26.0,30.29,ESE,121,0.0,0.0,73,0.00,,,0.02,,2013-02-19 06:53:00,
2013-02-19 02:01:00,34.0,27.0,30.27,ESE,121,0.0,0.0,74,0.00,,,0.02,,2013-02-19 07:01:00,
2013-02-19 02:11:00,34.0,27.0,30.27,ESE,121,0.0,0.0,74,0.00,,,0.02,,2013-02-19 07:11:00,
2013-02-19 02:22:00,33.0,26.0,30.26,ESE,121,0.0,0.0,75,0.00,,,0.02,,2013-02-19 07:22:00,
2013-02-19 02:32:00,33.0,26.0,30.25,ESE,121,0.0,0.0,75,0.00,,,0.02,,2013-02-19 07:32:00,
2013-02-19 02:42:00,33.0,26.0,30.25,ESE,121,0.0,0.0,75,0.00,,,0.02,,2013-02-19 07:42:00,
2013-02-19 02:52:00,33.0,26.0,30.24,WNW,291,0.0,2.0,75,0.00,,,0.02,,2013-02-19 07:52:00,
2013-02-19 03:02:00,33.0,26.0,30.23,WNW,292,0.0,0.0,74,0.00,,,0.02,,2013-02-19 08:02:00,
2013-02-19 03:11:00,33.0,26.0,30.23,WNW,292,0.0,0.0,74,0.00,,,0.02,,2013-02-19 08:11:00,
2013-02-19 03:22:00,36.0,27.0,30.22,West,268,0.0,4.0,69,0.00,,,0.02,,2013-02-19 08:22:00,
2013-02-19 03:32:00,35.0,26.0,30.22,NNE,32,0.0,1.0,70,0.00,,,0.02,,2013-02-19 08:32:00,
2013-02-19 03:42:00,35.0,26.0,30.22,NNE,32,0.0,1.0,70,0.00,,,0.02,,2013-02-19 08:42:00,
2013-02-19 03:52:00,34.0,27.0,30.21,NNE,32,0.0,0.0,75,0.00,,,0.02,,2013-02-19 08:52:00,
2013-02-19 04:02:00,34.0,27.0,30.20,NNE,32,0.0,1.0,74,0.00,,,0.02,,2013-02-19 09:02:00,
2013-02-19 04:11:00,34.0,27.0,30.20,NNE,32,0.0,1.0,74,0.00,,,0.02,,2013-02-19 09:11:00,
2013-02-19 04:22:00,35.0,28.0,30.21,NNE,32,0.0,0.0,74,0.00,,,0.02,,2013-02-19 09:22:00,
2013-02-19 04:32:00,34.0,27.0,30.20,NNE,32,0.0,0.0,76,0.00,,,0.02,,2013-02-19 09:32:00,
2013-02-19 04:42:00,34.0,27.0,30.20,NNE,32,0.0,0.0,76,0.00,,,0.02,,2013-02-19 09:42:00,
2013-02-19 04:53:00,34.0,28.0,30.20,NNE,32,0.0,0.0,78,0.00,,,0.02,,2013-02-19 09:53:00,
2013-02-19 05:02:00,34.0,28.0,30.21,NNE,32,0.0,0.0,78,0.00,,,0.02,,2013-02-19 10:02:00,
2013-02-19 05:11:00,34.0,28.0,30.21,NNE,32,0.0,0.0,78,0.00,,,0.02,,2013-02-19 10:11:00,
2013-02-19 05:22:00,34.0,28.0,30.20,NNE,32,0.0,0.0,79,0.00,,,0.02,,2013-02-19 10:22:00,
2013-02-19 05:32:00,34.0,28.0,30.20,NNE,32,0.0,0.0,80,0.00,,,0.02,,2013-02-19 10:32:00,
2013-02-19 05:42:00,34.0,28.0,30.20,NNE,32,0.0,0.0,80,0.00,,,0.02,,2013-02-19 10:42:00,
2013-02-19 05:52:00,34.0,29.0,30.19,NNE,32,0.0,0.0,81,0.00,,,0.02,,2013-02-19 10:52:00,
2013-02-19 06:01:00,34.0,29.0,30.19,NNE,32,0.0,0.0,81,0.00,,,0.02,,2013-02-19 11:01:00,
2013-02-19 06:11:00,34.0,29.0,30.19,NNE,32,0.0,0.0,81,0.00,,,0.02,,2013-02-19 11:11:00,
2013-02-19 06:22:00,35.0,29.0,30.19,East,97,0.0,0.0,80,0.00,,,0.02,,2013-02-19 11:22:00,
2013-02-19 06:32:00,36.0,30.0,30.19,SSW,192,0.0,0.0,80,0.00,,,0.02,,2013-02-19 11:32:00,
2013-02-19 06:42:00,36.0,30.0,30.19,SSW,192,0.0,0.0,80,0.00,,,0.02,,2013-02-19 11:42:00,
2013-02-19 06:52:00,36.0,31.0,30.19,SSW,192,0.0,0.0,81,0.00,,,0.02,,2013-02-19 11:52:00,
2013-02-19 07:02:00,36.0,30.0,30.19,SSW,192,0.0,0.0,80,0.00,,,0.02,,2013-02-19 12:02:00,
2013-02-19 07:12:00,36.0,30.0,30.19,SSW,192,0.0,0.0,80,0.00,,,0.02,,2013-02-19 12:12:00,
2013-02-19 07:22:00,36.0,30.0,30.19,SSW,192,0.0,0.0,79,0.00,,,0.02,,2013-02-19 12:22:00,
2013-02-19 07:32:00,37.0,32.0,30.19,SSW,192,0.0,0.0,81,0.01,,,0.03,,2013-02-19 12:32:00,
2013-02-19 07:42:00,37.0,32.0,30.19,SSW,192,0.0,0.0,81,0.01,,,0.03,,2013-02-19 12:42:00,
2013-02-19 07:52:00,36.0,32.0,30.19,SSW,192,0.0,1.0,85,0.05,,,0.07,,2013-02-19 12:52:00,
2013-02-19 08:02:00,36.0,32.0,30.18,SSW,209,0.0,1.0,86,0.07,,,0.09,,2013-02-19 13:02:00,
2013-02-19 08:11:00,36.0,32.0,30.18,SSW,209,0.0,1.0,86,0.07,,,0.09,,2013-02-19 13:11:00,
2013-02-19 08:22:00,36.0,33.0,30.18,SSW,209,0.0,0.0,87,0.11,,,0.13,,2013-02-19 13:22:00,
2013-02-19 08:32:00,36.0,33.0,30.18,South,176,0.0,1.0,88,0.12,,,0.15,,2013-02-19 13:32:00,
2013-02-19 08:42:00,36.0,33.0,30.18,South,176,0.0,1.0,88,0.12,,,0.15,,2013-02-19 13:42:00,
2013-02-19 08:52:00,36.0,33.0,30.18,ENE,74,0.0,0.0,89,0.12,,,0.19,,2013-02-19 13:52:00,
2013-02-19 09:01:00,36.0,33.0,30.18,ENE,74,0.0,0.0,90,0.11,,,0.20,,2013-02-19 14:01:00,
2013-02-19 09:12:00,36.0,33.0,30.18,ENE,74,0.0,0.0,90,0.11,,,0.20,,2013-02-19 14:12:00,
2013-02-19 09:22:00,36.0,33.0,30.16,ENE,74,0.0,0.0,90,0.10,,,0.22,,2013-02-19 14:22:00,
2013-02-19 09:33:00,36.0,34.0,30.15,WSW,245,0.0,1.0,91,0.07,,,0.22,,2013-02-19 14:33:00,
2013-02-19 09:42:00,36.0,34.0,30.15,WSW,245,0.0,1.0,91,0.07,,,0.22,,2013-02-19 14:42:00,
2013-02-19 09:52:00,37.0,35.0,30.14,WSW,250,0.0,1.0,91,0.03,,,0.22,,2013-02-19 14:52:00,
2013-02-19 10:02:00,37.0,35.0,30.14,WSW,249,0.0,1.0,92,0.03,,,0.23,,2013-02-19 15:02:00,
2013-02-19 10:11:00,37.0,35.0,30.14,WSW,249,0.0,1.0,92,0.03,,,0.23,,2013-02-19 15:11:00,
2013-02-19 10:22:00,37.0,35.0,30.12,West,272,0.0,1.0,92,0.01,,,0.23,,2013-02-19 15:22:00,
2013-02-19 10:32:00,37.0,35.0,30.12,WNW,286,0.0,2.0,92,0.01,,,0.23,,2013-02-19 15:32:00,
2013-02-19 10:42:00,37.0,35.0,30.12,WNW,286,0.0,2.0,92,0.01,,,0.23,,2013-02-19 15:42:00,
2013-02-19 10:52:00,38.0,36.0,30.12,SSW,195,0.0,0.0,92,0.01,,,0.23,,2013-02-19 15:52:00,
2013-02-19 11:02:00,38.0,36.0,30.12,East,101,0.0,1.0,93,0.00,,,0.23,,2013-02-19 16:02:00,
2013-02-19 11:11:00,38.0,36.0,30.12,East,101,0.0,1.0,93,0.00,,,0.23,,2013-02-19 16:11:00,
2013-02-19 11:22:00,39.0,37.0,30.11,WSW,256,0.0,0.0,93,0.01,,,0.24,,2013-02-19 16:22:00,
2013-02-19 11:32:00,39.0,37.0,30.11,WNW,294,0.0,3.0,93,0.01,,,0.24,,2013-02-19 16:32:00,
2013-02-19 11:42:00,39.0,37.0,30.11,WNW,294,0.0,3.0,93,0.01,,,0.24,,2013-02-19 16:42:00,
2013-02-19 11:52:00,40.0,38.0,30.09,West,276,0.0,3.0,94,0.01,,,0.23,,2013-02-19 16:52:00,
2013-02-19 12:01:00,40.0,38.0,30.09,WSW,242,0.0,2.0,94,0.01,,,0.23,,2013-02-19 17:01:00,
2013-02-19 12:11:00,40.0,38.0,30.09,WSW,242,0.0,2.0,94,0.01,,,0.23,,2013-02-19 17:11:00,
2013-02-19 12:21:00,41.0,39.0,30.07,West,274,0.0,5.0,94,0.00,,,0.23,,2013-02-19 17:21:00,
2013-02-19 12:32:00,42.0,40.0,30.06,West,272,0.0,3.0,94,0.00,,,0.23,,2013-02-19 17:32:00,
2013-02-19 12:42:00,42.0,40.0,30.06,West,272,0.0,3.0,94,0.00,,,0.23,,2013-02-19 17:42:00,
2013-02-19 12:52:00,42.0,40.0,30.04,West,267,1.0,5.0,93,0.00,,,0.22,,2013-02-19 17:52:00,
2013-02-19 13:01:00,43.0,41.0,30.04,WNW,300,2.0,7.0,94,0.00,,,0.22,,2013-02-19 18:01:00,
2013-02-19 13:11:00,43.0,41.0,30.04,WNW,300,2.0,7.0,94,0.00,,,0.22,,2013-02-19 18:11:00,
2013-02-19 13:21:00,43.0,41.0,30.02,SW,236,0.0,5.0,93,0.00,,,0.22,,2013-02-19 18:21:00,
2013-02-19 13:32:00,44.0,42.0,30.01,SSW,201,1.0,5.0,93,0.00,,,0.22,,2013-02-19 18:32:00,
2013-02-19 13:42:00,45.0,43.0,30.01,SW,218,1.0,5.0,92,0.00,,,0.22,,2013-02-19 18:42:00,
2013-02-19 13:52:00,45.0,43.0,30.01,SW,218,1.0,5.0,92,0.00,,,0.22,,2013-02-19 18:52:00,
2013-02-19 14:01:00,45.0,42.0,30.01,SSE,152,1.0,5.0,90,0.00,,,0.22,,2013-02-19 19:01:00,
2013-02-19 14:11:00,45.0,42.0,30.01,SSE,152,1.0,5.0,90,0.00,,,0.22,,2013-02-19 19:11:00,
2013-02-19 14:21:00,45.0,42.0,30.00,SE,129,1.0,3.0,90,0.00,,,0.22,,2013-02-19 19:21:00,
2013-02-19 14:32:00,45.0,42.0,30.00,NE,53,0.0,4.0,89,0.00,,,0.22,,2013-02-19 19:32:00,
2013-02-19 14:42:00,45.0,42.0,30.00,NE,53,0.0,4.0,89,0.00,,,0.22,,2013-02-19 19:42:00,
2013-02-19 14:52:00,46.0,43.0,29.99,West,267,0.0,3.0,88,0.00,,,0.22,,2013-02-19 19:52:00,
2013-02-19 15:02:00,45.0,41.0,29.99,WNW,292,1.0,5.0,87,0.00,,,0.22,,2013-02-19 20:02:00,
2013-02-19 15:12:00,45.0,41.0,29.99,WNW,292,1.0,5.0,87,0.00,,,0.22,,2013-02-19 20:12:00,
2013-02-19 15:22:00,45.0,42.0,29.99,SSW,207,0.0,5.0,88,0.00,,,0.22,,2013-02-19 20:22:00,
2013-02-19 15:32:00,45.0,42.0,29.98,SSW,209,1.0,3.0,88,0.00,,,0.22,,2013-02-19 20:32:00,
2013-02-19 15:42:00,45.0,42.0,29.98,SSW,209,1.0,3.0,88,0.00,,,0.22,,2013-02-19 20:42:00,
2013-02-19 15:52:00,45.0,42.0,29.98,South,187,0.0,3.0,88,0.00,,,0.22,,2013-02-19 20:52:00,
2013-02-19 16:02:00,45.0,42.0,29.98,WSW,242,0.0,3.0,88,0.00,,,0.22,,2013-02-19 21:02:00,
2013-02-19 16:11:00,45.0,42.0,29.98,WSW,242,0.0,3.0,88,0.00,,,0.22,,2013-02-19 21:11:00,
2013-02-19 16:21:00,46.0,43.0,29.98,NE,44,0.0,3.0,88,0.00,,,0.22,,2013-02-19 21:21:00,
2013-02-19 16:32:00,46.0,42.0,29.98,East,96,0.0,3.0,87,0.00,,,0.22,,2013-02-19 21:32:00,
2013-02-19 16:42:00,46.0,42.0,29.98,East,96,0.0,3.0,87,0.00,,,0.22,,2013-02-19 21:42:00,
2013-02-19 16:52:00,46.0,42.0,29.98,SSE,168,0.0,4.0,87,0.00,,,0.22,,2013-02-19 21:52:00,
2013-02-19 17:02:00,46.0,42.0,29.98,SW,227,0.0,3.0,87,0.00,,,0.22,,2013-02-19 22:02:00,
2013-02-19 17:11:00,46.0,42.0,29.98,SW,227,0.0,3.0,87,0.00,,,0.22,,2013-02-19 22:11:00,
2013-02-19 17:21:00,47.0,43.0,29.98,SW,227,0.0,1.0,87,0.00,,,0.22,,2013-02-19 22:21:00,
2013-02-19 17:32:00,47.0,43.0,29.99,SW,227,0.0,0.0,87,0.00,,,0.22,,2013-02-19 22:32:00,
2013-02-19 17:42:00,47.0,43.0,29.99,SW,227,0.0,0.0,87,0.00,,,0.22,,2013-02-19 22:42:00,
2013-02-19 17:52:00,47.0,43.0,29.99,SW,227,0.0,0.0,86,0.00,,,0.22,,2013-02-19 22:52:00,
2013-02-19 18:01:00,46.0,42.0,29.99,SW,227,0.0,0.0,87,0.00,,,0.22,,2013-02-19 23:01:00,
2013-02-19 18:11:00,46.0,42.0,29.99,SW,227,0.0,0.0,87,0.00,,,0.22,,2013-02-19 23:11:00,
2013-02-19 18:21:00,46.0,42.0,30.00,SE,143,0.0,2.0,87,0.00,,,0.22,,2013-02-19 23:21:00,
2013-02-19 18:32:00,45.0,41.0,30.01,SSW,203,0.0,3.0,87,0.00,,,0.22,,2013-02-19 23:32:00,
2013-02-19 18:42:00,45.0,41.0,30.01,SSW,203,0.0,3.0,87,0.00,,,0.22,,2013-02-19 23:42:00,
2013-02-19 18:52:00,45.0,41.0,30.02,SSW,203,0.0,0.0,87,0.00,,,0.22,,2013-02-19 23:52:00,
2013-02-19 19:01:00,44.0,40.0,30.02,SSW,204,0.0,0.0,87,0.00,,,0.22,,2013-02-20 00:01:00,
2013-02-19 19:11:00,44.0,40.0,30.02,SSW,204,0.0,0.0,87,0.00,,,0.22,,2013-02-20 00:11:00,
2013-02-19 19:21:00,42.0,39.0,30.03,SSW,204,0.0,0.0,88,0.00,,,0.22,,2013-02-20 00:21:00,
2013-02-19 19:32:00,42.0,39.0,30.04,SSW,203,0.0,0.0,88,0.00,,,0.22,,2013-02-20 00:32:00,
2013-02-19 19:42:00,42.0,39.0,30.04,SSW,203,0.0,0.0,88,0.00,,,0.22,,2013-02-20 00:42:00,
2013-02-19 19:52:00,40.0,37.0,30.05,SSW,203,0.0,1.0,90,0.00,,,0.22,,2013-02-20 00:52:00,
2013-02-19 20:02:00,40.0,37.0,30.05,SSW,203,0.0,0.0,90,0.00,,,0.22,,2013-02-20 01:02:00,
2013-02-19 20:11:00,40.0,37.0,30.05,SSW,203,0.0,0.0,90,0.00,,,0.22,,2013-02-20 01:11:00,
2013-02-19 20:21:00,40.0,38.0,30.06,SSW,204,0.0,0.0,91,0.00,,,0.22,,2013-02-20 01:21:00,
2013-02-19 20:32:00,39.0,37.0,30.06,SSW,203,0.0,0.0,91,0.00,,,0.22,,2013-02-20 01:32:00,
2013-02-19 20:42:00,39.0,37.0,30.06,SSW,203,0.0,0.0,91,0.00,,,0.22,,2013-02-20 01:42:00,
2013-02-19 20:52:00,38.0,36.0,30.06,SSW,203,0.0,0.0,91,0.00,,,0.22,,2013-02-20 01:52:00,
2013-02-19 21:02:00,37.0,35.0,30.06,SSW,204,0.0,1.0,91,0.00,,,0.22,,2013-02-20 02:02:00,
2013-02-19 21:11:00,37.0,35.0,30.06,SSW,204,0.0,1.0,91,0.00,,,0.22,,2013-02-20 02:11:00,
2013-02-19 21:21:00,37.0,34.0,30.07,SSW,203,0.0,0.0,90,0.00,,,0.22,,2013-02-20 02:21:00,
2013-02-19 21:32:00,37.0,34.0,30.07,SSW,204,0.0,0.0,87,0.00,,,0.22,,2013-02-20 02:32:00,
2013-02-19 21:42:00,37.0,34.0,30.07,SSW,204,0.0,0.0,87,0.00,,,0.22,,2013-02-20 02:42:00,
2013-02-19 21:52:00,37.0,31.0,30.08,SSW,204,0.0,0.0,80,0.00,,,0.22,,2013-02-20 02:52:00,
2013-02-19 22:02:00,37.0,29.0,30.09,SSW,204,0.0,0.0,74,0.00,,,0.22,,2013-02-20 03:02:00,
2013-02-19 22:12:00,37.0,29.0,30.09,SSW,204,0.0,0.0,74,0.00,,,0.22,,2013-02-20 03:12:00,
2013-02-19 22:22:00,36.0,30.0,30.09,SSW,204,0.0,0.0,79,0.00,,,0.22,,2013-02-20 03:22:00,
2013-02-19 22:32:00,35.0,30.0,30.09,SSW,204,0.0,0.0,81,0.00,,,0.22,,2013-02-20 03:32:00,
2013-02-19 22:42:00,35.0,30.0,30.09,SSW,204,0.0,0.0,81,0.00,,,0.22,,2013-02-20 03:42:00,
2013-02-19 22:52:00,33.0,28.0,30.09,SSW,204,0.0,0.0,83,0.00,,,0.22,,2013-02-20 03:52:00,
2013-02-19 23:01:00,33.0,29.0,30.09,SSW,204,0.0,0.0,84,0.00,,,0.22,,2013-02-20 04:01:00,
2013-02-19 23:11:00,33.0,29.0,30.09,SSW,204,0.0,0.0,84,0.00,,,0.22,,2013-02-20 04:11:00,
2013-02-19 23:21:00,32.0,28.0,30.10,SSW,203,0.0,0.0,84,0.00,,,0.22,,2013-02-20 04:21:00,
2013-02-19 23:32:00,31.0,27.0,30.10,SSW,204,0.0,0.0,85,0.00,,,0.22,,2013-02-20 04:32:00,
2013-02-19 23:52:00,30.0,26.0,30.10,SSW,204,0.0,0.0,86,0.00,,,0.22,,2013-02-20 04:52:00,